Time;durP1;ratioP1;P1;durP2;ratioP2;P2;SDS_P1;SDS_P2;PMS_P1;PMS_P2;Temp;Humidity;BMP_temperature;BMP_pressure;BME280_temperature;BME280_humidity;BME280_pressure;Samples;Min_cycle;Max_cycle;Signal;HPM_P1;HPM_P2
2023/03/29 07:37:23;;;;;;;2.67;1.23;;;11.50;99.90;;;;;;2420062;23;20690;-71
2023/03/29 07:39:52;;;;;;;3.63;1.20;;;11.40;99.90;;;;;;4954362;29;20238;-70
2023/03/29 07:42:19;;;;;;;2.87;1.07;;;11.50;99.90;;;;;;4956523;28;20659;-70
2023/03/29 07:44:47;;;;;;;3.90;1.40;;;11.40;99.90;;;;;;4956706;28;20621;-72
2023/03/29 07:47:14;;;;;;;4.43;1.10;;;11.50;99.90;;;;;;4955387;28;20695;-72
2023/03/29 07:49:41;;;;;;;1.27;0.93;;;11.60;99.90;;;;;;4956497;28;20654;-72
2023/03/29 07:52:08;;;;;;;2.20;1.10;;;11.70;99.90;;;;;;4956560;28;20204;-72
2023/03/29 07:54:35;;;;;;;2.10;1.10;;;11.80;99.90;;;;;;4956445;28;20230;-72
2023/03/29 07:57:03;;;;;;;3.77;1.13;;;11.80;99.90;;;;;;4956851;28;20208;-73
2023/03/29 07:59:30;;;;;;;2.03;1.00;;;11.80;99.90;;;;;;4956597;28;20263;-74
2023/03/29 08:01:57;;;;;;;4.83;1.17;;;11.70;99.90;;;;;;4956588;28;20208;-74
2023/03/29 08:04:23;;;;;;;4.67;1.83;;;11.50;99.90;;;;;;4956674;28;20238;-73
2023/03/29 08:06:51;;;;;;;1.53;0.80;;;11.60;99.90;;;;;;4956385;28;20208;-74
2023/03/29 08:09:18;;;;;;;4.40;1.00;;;11.60;99.90;;;;;;4956398;28;20221;-72
2023/03/29 08:11:44;;;;;;;1.73;1.10;;;11.70;99.90;;;;;;4956403;28;20211;-73
2023/03/29 08:14:12;;;;;;;3.77;1.07;;;11.90;99.90;;;;;;4956331;28;20224;-72
2023/03/29 08:16:39;;;;;;;3.23;1.07;;;12.10;99.90;;;;;;4956216;28;20215;-73
2023/03/29 08:19:06;;;;;;;2.60;1.27;;;12.10;99.90;;;;;;4956283;28;20215;-73
2023/03/29 08:21:33;;;;;;;3.30;1.00;;;12.30;99.90;;;;;;4956108;28;20706;-73
2023/03/29 08:24:00;;;;;;;2.93;1.30;;;12.40;99.90;;;;;;4956340;28;20236;-73
2023/03/29 08:26:27;;;;;;;2.70;1.33;;;12.40;99.90;;;;;;4956446;28;20214;-73
2023/03/29 08:28:53;;;;;;;4.43;1.30;;;12.20;99.90;;;;;;4956345;28;20571;-72
2023/03/29 08:31:21;;;;;;;3.83;1.10;;;12.30;99.90;;;;;;4956207;28;20208;-74
2023/03/29 08:33:48;;;;;;;4.33;1.33;;;12.50;99.90;;;;;;4956212;28;20583;-72
2023/03/29 08:36:15;;;;;;;3.00;1.07;;;12.80;99.90;;;;;;4956305;28;20211;-71
2023/03/29 08:38:42;;;;;;;3.33;0.90;;;13.20;99.90;;;;;;4955658;28;20314;-72
2023/03/29 08:41:26;;;;;;;3.00;1.27;;;13.20;99.90;;;;;;4955865;28;20236;-72
2023/03/29 08:44:01;;;;;;;2.70;1.10;;;13.10;99.90;;;;;;4955918;28;20228;-73
2023/03/29 08:46:36;;;;;;;4.07;1.20;;;13.00;99.90;;;;;;4955993;28;20682;-71
2023/03/29 08:49:05;;;;;;;4.03;0.97;;;12.90;99.90;;;;;;4955950;28;20233;-72
2023/03/29 08:51:36;;;;;;;4.67;1.20;;;13.20;99.90;;;;;;4955582;28;20218;-72
2023/03/29 08:54:06;;;;;;;1.57;1.07;;;13.50;99.90;;;;;;4955425;28;20703;-72
2023/03/29 08:56:36;;;;;;;3.33;1.20;;;13.60;99.90;;;;;;4955952;28;20208;-72
2023/03/29 08:59:05;;;;;;;3.77;1.23;;;13.80;99.90;;;;;;4955310;28;20558;-73
2023/03/29 09:01:36;;;;;;;2.27;1.23;;;13.80;99.90;;;;;;4955469;28;20236;-72
2023/03/29 09:04:07;;;;;;;1.63;1.00;;;13.60;99.90;;;;;;4955623;28;20236;-73
2023/03/29 09:06:34;;;;;;;3.13;1.07;;;13.60;99.90;;;;;;4955581;28;20207;-72
2023/03/29 09:09:01;;;;;;;2.90;1.43;;;13.50;99.90;;;;;;4955604;28;20254;-72
2023/03/29 09:11:41;;;;;;;2.73;1.10;;;13.60;99.90;;;;;;4955271;28;20211;-73
2023/03/29 09:14:35;;;;;;;4.83;1.23;;;13.80;99.90;;;;;;4955306;28;20232;-72
2023/03/29 09:17:15;;;;;;;2.13;1.10;;;14.10;99.90;;;;;;4955253;28;20216;-72
2023/03/29 09:19:49;;;;;;;3.37;1.13;;;14.30;99.90;;;;;;4955058;28;20237;-72
2023/03/29 09:22:27;;;;;;;2.73;1.30;;;14.30;99.90;;;;;;4954941;28;20552;-73
2023/03/29 09:25:04;;;;;;;3.57;1.40;;;14.30;99.90;;;;;;4955011;28;20259;-73
2023/03/29 09:27:40;;;;;;;2.80;1.50;;;14.30;99.90;;;;;;4955305;28;20214;-73
2023/03/29 09:30:16;;;;;;;3.57;1.40;;;14.10;99.90;;;;;;4954803;28;20569;-73
2023/03/29 09:32:51;;;;;;;3.13;1.43;;;14.30;99.90;;;;;;4955113;28;20551;-73
2023/03/29 09:35:23;;;;;;;2.40;1.37;;;14.40;99.90;;;;;;4955215;28;20231;-73
2023/03/29 09:37:52;;;;;;;2.97;1.40;;;14.40;99.90;;;;;;4954850;28;20224;-74
2023/03/29 09:40:24;;;;;;;2.63;0.90;;;14.50;99.90;;;;;;4954792;28;20259;-73
2023/03/29 09:42:54;;;;;;;3.17;1.40;;;14.60;99.90;;;;;;4954821;28;20718;-73
2023/03/29 09:45:21;;;;;;;2.33;1.50;;;14.60;99.90;;;;;;4954645;28;20232;-73
2023/03/29 09:47:55;;;;;;;3.60;1.20;;;14.70;99.90;;;;;;4954779;28;20272;-73
2023/03/29 09:50:27;;;;;;;3.80;1.50;;;14.50;99.90;;;;;;4955040;28;20219;-73
2023/03/29 09:52:54;;;;;;;3.57;1.23;;;14.70;99.90;;;;;;4955138;28;20218;-74
2023/03/29 09:55:26;;;;;;;3.63;1.40;;;14.60;99.90;;;;;;4954038;28;20228;-73
2023/03/29 09:57:53;;;;;;;3.30;1.40;;;15.00;99.90;;;;;;4954506;28;20290;-73
2023/03/29 10:00:20;;;;;;;1.73;1.13;;;15.40;99.90;;;;;;4954609;28;20249;-73
2023/03/29 10:02:53;;;;;;;1.03;0.87;;;15.70;99.90;;;;;;4954341;28;20218;-73
2023/03/29 10:05:20;;;;;;;2.80;1.20;;;16.00;99.90;;;;;;4954166;28;20588;-73
2023/03/29 10:07:51;;;;;;;3.60;1.17;;;16.00;99.90;;;;;;4953948;28;20203;-74
2023/03/29 10:10:23;;;;;;;1.93;0.90;;;15.70;99.90;;;;;;4955462;28;20563;-73
2023/03/29 10:12:52;;;;;;;2.13;1.47;;;15.70;99.90;;;;;;4958390;28;20208;-73
2023/03/29 10:15:20;;;;;;;1.80;1.20;;;15.70;99.90;;;;;;4958167;28;20228;-73
2023/03/29 10:17:47;;;;;;;2.73;1.20;;;15.60;99.90;;;;;;4958071;28;20286;-73
2023/03/29 10:20:18;;;;;;;2.43;0.93;;;15.70;99.90;;;;;;4958439;28;20253;-73
2023/03/29 10:22:55;;;;;;;3.03;0.80;;;15.70;99.90;;;;;;4958317;28;20212;-73
2023/03/29 10:25:26;;;;;;;1.57;1.20;;;15.70;99.90;;;;;;4958133;28;20231;-73
2023/03/29 10:27:58;;;;;;;1.60;0.93;;;15.90;99.90;;;;;;4958217;28;20243;-73
2023/03/29 10:30:26;;;;;;;3.20;1.00;;;15.60;99.90;;;;;;4958022;28;20570;-74
2023/03/29 10:32:57;;;;;;;1.43;0.90;;;15.70;99.90;;;;;;4958136;28;20574;-73
2023/03/29 10:35:30;;;;;;;3.13;0.93;;;15.60;99.90;;;;;;4957987;28;20324;-73
2023/03/29 10:37:58;;;;;;;2.80;1.27;;;15.90;99.90;;;;;;4958031;28;20216;-74
2023/03/29 10:40:31;;;;;;;2.27;0.93;;;16.10;99.90;;;;;;4957518;28;20236;-74
2023/03/29 10:43:12;;;;;;;1.47;0.87;;;16.00;99.90;;;;;;4958173;28;20236;-74
2023/03/29 10:45:41;;;;;;;3.33;1.10;;;16.30;99.90;;;;;;4958002;28;20227;-73
2023/03/29 10:48:12;;;;;;;2.33;1.10;;;16.50;99.90;;;;;;4958011;28;20243;-73
2023/03/29 10:50:42;;;;;;;2.63;1.20;;;16.50;99.90;;;;;;4958096;28;20215;-73
2023/03/29 10:53:15;;;;;;;3.53;1.30;;;16.80;99.90;;;;;;4950529;28;20655;-74
2023/03/29 10:55:50;;;;;;;2.87;1.13;;;16.80;99.90;;;;;;4947502;28;20232;-73
2023/03/29 10:58:29;;;;;;;4.93;1.30;;;16.90;99.90;;;;;;4947812;28;20659;-73
2023/03/29 11:00:57;;;;;;;1.33;0.90;;;16.80;99.90;;;;;;4947824;29;20725;-73
2023/03/29 11:03:39;;;;;;;1.57;1.10;;;16.80;99.90;;;;;;4946666;28;20231;-73
2023/03/29 11:06:16;;;;;;;1.77;0.97;;;16.40;99.90;;;;;;4944573;28;20212;-73
2023/03/29 11:08:56;;;;;;;1.63;1.00;;;16.30;99.90;;;;;;4946138;28;20272;-72
2023/03/29 11:11:45;;;;;;;2.33;0.87;;;16.30;99.90;;;;;;4952787;29;20235;-73
2023/03/29 11:14:22;;;;;;;1.60;0.70;;;16.60;99.90;;;;;;4954516;28;20598;-73
2023/03/29 11:17:00;;;;;;;2.17;0.67;;;16.90;99.90;;;;;;4953318;28;20211;-73
2023/03/29 11:19:44;;;;;;;3.47;1.07;;;17.00;99.90;;;;;;4955395;29;20643;-72
2023/03/29 11:22:19;;;;;;;0.97;0.83;;;17.10;99.90;;;;;;4941340;28;20743;-73
2023/03/29 11:25:06;;;;;;;1.67;0.70;;;17.30;99.90;;;;;;4954943;28;20231;-73
2023/03/29 11:27:41;;;;;;;1.07;0.70;;;16.90;99.90;;;;;;4955487;29;20236;-72
2023/03/29 11:30:12;;;;;;;0.60;0.60;;;16.80;99.90;;;;;;4952899;28;20227;-73
2023/03/29 11:32:49;;;;;;;0.83;0.60;;;17.00;99.90;;;;;;4950413;28;20208;-73
2023/03/29 11:35:40;;;;;;;0.67;0.53;;;17.00;99.90;;;;;;4947061;28;20232;-72
2023/03/29 11:38:16;;;;;;;1.53;0.57;;;16.90;99.90;;;;;;4955660;29;20220;-74
2023/03/29 11:40:53;;;;;;;1.43;0.70;;;16.80;99.90;;;;;;4946853;28;20241;-72
2023/03/29 11:43:24;;;;;;;1.07;0.60;;;16.90;99.90;;;;;;4952708;28;20212;-73
2023/03/29 11:45:56;;;;;;;1.63;0.47;;;16.60;99.90;;;;;;4956330;28;20268;-73
2023/03/29 11:48:28;;;;;;;0.60;0.50;;;16.40;99.90;;;;;;4956791;28;20215;-73
2023/03/29 11:50:59;;;;;;;1.33;0.70;;;16.50;99.90;;;;;;4956743;28;20215;-73
2023/03/29 11:53:31;;;;;;;1.30;0.80;;;16.60;99.90;;;;;;4949095;28;20615;-74
2023/03/29 11:56:02;;;;;;;1.97;0.67;;;16.70;99.90;;;;;;4956222;28;20659;-73
2023/03/29 11:58:34;;;;;;;2.83;0.80;;;16.90;99.90;;;;;;4956355;28;20214;-73
2023/03/29 12:01:06;;;;;;;1.50;0.80;;;17.00;99.90;;;;;;4955976;28;20765;-73
2023/03/29 12:03:37;;;;;;;2.33;0.90;;;17.00;99.90;;;;;;4956003;28;20212;-72
2023/03/29 12:06:11;;;;;;;1.40;1.00;;;17.00;99.90;;;;;;4956477;28;20302;-74
2023/03/29 12:08:44;;;;;;;1.23;0.90;;;17.20;99.90;;;;;;4956272;28;20208;-73
2023/03/29 12:11:18;;;;;;;1.63;0.90;;;17.10;99.90;;;;;;4954804;28;20208;-73
2023/03/29 12:13:51;;;;;;;1.45;0.98;;;17.00;99.90;;;;;;4953930;28;20211;-73
2023/03/29 12:16:22;;;;;;;1.90;0.90;;;17.20;99.90;;;;;;4956053;28;20212;-74
2023/03/29 12:18:52;;;;;;;1.30;1.00;;;17.10;99.90;;;;;;4955916;28;20204;-73
2023/03/29 12:21:21;;;;;;;1.33;0.80;;;16.90;99.90;;;;;;4955206;28;20246;-73
2023/03/29 12:23:50;;;;;;;2.20;1.07;;;17.00;99.90;;;;;;4955199;28;20204;-73
2023/03/29 12:26:33;;;;;;;2.05;1.20;;;17.20;99.90;;;;;;4954877;28;20214;-73
2023/03/29 12:29:16;;;;;;;3.28;1.17;;;17.30;99.90;;;;;;4955348;28;20570;-74
2023/03/29 12:31:52;;;;;;;2.55;1.00;;;17.40;99.90;;;;;;4955163;28;20207;-73
2023/03/29 12:34:32;;;;;;;1.33;0.90;;;17.70;99.90;;;;;;4954400;28;20227;-73
2023/03/29 12:37:18;;;;;;;2.38;0.95;;;17.50;99.90;;;;;;4943281;28;20211;-72
2023/03/29 12:39:47;;;;;;;2.80;0.98;;;17.40;99.90;;;;;;4956625;28;20299;-74
2023/03/29 12:42:17;;;;;;;2.27;1.00;;;17.50;99.90;;;;;;4957743;28;20232;-73
2023/03/29 12:44:49;;;;;;;1.63;0.95;;;17.60;99.90;;;;;;4957152;28;20238;-74
2023/03/29 12:47:20;;;;;;;2.43;1.00;;;17.80;99.90;;;;;;4957160;28;20214;-74
2023/03/29 12:49:51;;;;;;;1.15;0.70;;;17.80;99.90;;;;;;4957980;28;20267;-74
2023/03/29 12:52:26;;;;;;;3.15;0.98;;;17.80;99.90;;;;;;4958797;28;20208;-73
2023/03/29 12:54:57;;;;;;;1.38;0.82;;;17.80;99.90;;;;;;4956125;28;20235;-74
2023/03/29 12:57:28;;;;;;;2.78;0.90;;;17.90;99.90;;;;;;4955774;28;20666;-74
2023/03/29 12:59:55;;;;;;;3.38;1.13;;;18.10;99.90;;;;;;4955393;28;20212;-74
2023/03/29 13:02:34;;;;;;;3.20;0.90;;;18.00;99.90;;;;;;4955284;28;20330;-74
2023/03/29 13:05:03;;;;;;;1.75;1.02;;;18.00;99.90;;;;;;4955287;28;20279;-73
2023/03/29 13:07:43;;;;;;;2.00;1.08;;;18.00;99.90;;;;;;4955554;28;20208;-73
2023/03/29 13:10:30;;;;;;;1.42;0.75;;;18.00;99.90;;;;;;4955019;28;20790;-73
2023/03/29 13:12:57;;;;;;;1.17;0.80;;;18.00;99.90;;;;;;4955323;28;20216;-73
2023/03/29 13:15:26;;;;;;;1.33;0.85;;;18.10;99.90;;;;;;4955429;28;20224;-74
2023/03/29 13:18:03;;;;;;;1.88;0.75;;;18.20;99.90;;;;;;4955211;28;20578;-74
2023/03/29 13:20:39;;;;;;;2.03;0.90;;;18.50;99.90;;;;;;4955326;28;20223;-73
2023/03/29 13:23:23;;;;;;;1.40;0.75;;;18.60;99.90;;;;;;4955383;28;20212;-73
2023/03/29 13:26:05;;;;;;;2.13;0.60;;;18.50;99.90;;;;;;4955272;28;20261;-74
2023/03/29 13:28:42;;;;;;;1.60;0.90;;;18.30;99.90;;;;;;4955287;28;20314;-73
2023/03/29 13:31:22;;;;;;;0.90;0.70;;;18.20;99.90;;;;;;4954892;28;20215;-73
2023/03/29 13:33:58;;;;;;;1.48;0.80;;;18.30;99.90;;;;;;4968334;23;20242;-72
2023/03/29 13:36:43;;;;;;;1.92;0.70;;;18.20;99.90;;;;;;4935075;29;20616;-71
2023/03/29 13:39:16;;;;;;;2.28;1.10;;;18.30;99.90;;;;;;4935548;29;20264;-72
2023/03/29 13:41:49;;;;;;;1.90;0.75;;;18.20;99.90;;;;;;4935905;29;20569;-71
2023/03/29 13:44:29;;;;;;;1.45;0.90;;;18.10;99.90;;;;;;4934445;29;20233;-72
2023/03/29 13:47:04;;;;;;;1.50;0.80;;;18.20;99.90;;;;;;4934562;29;20212;-71
2023/03/29 13:49:33;;;;;;;3.60;0.90;;;18.50;99.90;;;;;;4934481;29;20551;-71
2023/03/29 13:52:11;;;;;;;2.00;1.00;;;18.60;99.90;;;;;;4934747;29;20212;-72
2023/03/29 13:54:43;;;;;;;1.25;0.75;;;18.60;99.90;;;;;;4934469;29;20236;-72
2023/03/29 13:57:15;;;;;;;1.60;1.30;;;18.70;99.90;;;;;;4933932;29;20251;-72
2023/03/29 13:59:52;;;;;;;2.20;1.33;;;18.80;99.90;;;;;;4933589;29;20559;-71
2023/03/29 14:02:27;;;;;;;2.60;1.00;;;18.70;99.90;;;;;;4933962;29;20236;-72
2023/03/29 14:04:54;;;;;;;2.80;0.82;;;18.60;99.90;;;;;;4935092;29;20236;-71
2023/03/29 14:07:25;;;;;;;2.03;1.15;;;18.70;99.90;;;;;;4935149;29;20801;-71
2023/03/29 14:09:53;;;;;;;2.92;0.90;;;18.90;99.90;;;;;;4935192;29;20224;-72
2023/03/29 14:12:22;;;;;;;3.63;0.90;;;19.00;99.90;;;;;;4935293;29;20213;-71
2023/03/29 14:14:49;;;;;;;1.42;0.90;;;19.10;99.90;;;;;;4935464;29;20236;-72
2023/03/29 14:17:20;;;;;;;2.08;1.00;;;19.00;99.90;;;;;;4935565;29;20660;-72
2023/03/29 14:19:48;;;;;;;2.10;1.10;;;19.20;99.90;;;;;;4935849;29;20631;-72
2023/03/29 14:22:18;;;;;;;3.85;1.05;;;19.10;99.90;;;;;;4935579;29;20606;-72
2023/03/29 14:24:48;;;;;;;1.50;0.93;;;19.10;99.90;;;;;;4935249;29;20234;-72
2023/03/29 14:27:16;;;;;;;1.92;1.00;;;19.10;99.90;;;;;;4935357;29;20220;-72
2023/03/29 14:29:48;;;;;;;4.00;0.80;;;19.00;99.90;;;;;;4935462;29;20569;-72
2023/03/29 14:32:17;;;;;;;1.60;1.00;;;18.90;99.90;;;;;;4935658;29;20620;-72
2023/03/29 14:34:47;;;;;;;1.63;1.00;;;18.70;99.90;;;;;;4935447;29;20236;-73
2023/03/29 14:37:17;;;;;;;2.65;0.90;;;18.60;99.90;;;;;;4935421;29;20247;-72
2023/03/29 14:39:44;;;;;;;2.05;0.80;;;18.40;99.90;;;;;;4935205;29;20216;-72
2023/03/29 14:42:19;;;;;;;1.40;0.70;;;18.40;99.90;;;;;;4935471;29;20252;-72
2023/03/29 14:44:48;;;;;;;1.35;0.82;;;18.40;99.90;;;;;;4935490;29;20232;-72
2023/03/29 14:47:20;;;;;;;3.90;0.95;;;18.30;99.90;;;;;;4935737;29;20303;-72
2023/03/29 14:49:47;;;;;;;2.00;0.88;;;18.10;99.90;;;;;;4935325;29;20672;-71
2023/03/29 14:52:15;;;;;;;1.35;0.68;;;18.10;99.90;;;;;;4935238;29;20209;-72
2023/03/29 14:54:46;;;;;;;0.98;0.80;;;18.00;99.90;;;;;;4935141;29;20287;-72
2023/03/29 14:57:17;;;;;;;1.70;0.80;;;18.00;99.90;;;;;;4937900;29;20227;-72
2023/03/29 14:59:49;;;;;;;1.92;0.70;;;18.20;99.90;;;;;;4938879;29;20208;-72
2023/03/29 15:02:25;;;;;;;2.08;0.80;;;18.30;99.90;;;;;;4939182;29;20607;-71
2023/03/29 15:04:58;;;;;;;1.67;1.02;;;18.40;99.90;;;;;;4938622;29;20236;-71
2023/03/29 15:07:25;;;;;;;1.83;0.70;;;18.30;99.90;;;;;;4939188;29;20237;-71
2023/03/29 15:09:53;;;;;;;2.35;0.80;;;18.20;99.90;;;;;;4938592;29;20209;-71
2023/03/29 15:12:20;;;;;;;1.45;0.70;;;18.30;99.90;;;;;;4938487;29;20213;-71
2023/03/29 15:14:49;;;;;;;1.63;0.80;;;18.30;99.90;;;;;;4938573;29;20727;-71
2023/03/29 15:17:29;;;;;;;1.00;0.65;;;18.20;99.90;;;;;;4938577;29;20216;-71
2023/03/29 15:19:59;;;;;;;3.65;0.80;;;18.00;99.90;;;;;;4938594;29;20213;-71
2023/03/29 15:22:32;;;;;;;4.78;0.80;;;18.00;99.90;;;;;;4938576;29;20244;-71
2023/03/29 15:24:59;;;;;;;1.45;0.75;;;18.00;99.90;;;;;;4938222;29;20235;-71
2023/03/29 15:27:26;;;;;;;1.42;0.80;;;18.00;99.90;;;;;;4938041;29;20264;-71
2023/03/29 15:30:01;;;;;;;2.10;0.73;;;18.00;99.90;;;;;;4937943;29;20205;-71
2023/03/29 15:32:35;;;;;;;2.00;0.63;;;18.00;99.90;;;;;;4937990;29;20215;-71
2023/03/29 15:35:06;;;;;;;3.15;1.02;;;18.20;99.90;;;;;;4938517;29;20240;-72
2023/03/29 15:37:34;;;;;;;1.50;0.90;;;18.30;99.90;;;;;;4938422;29;20205;-71
2023/03/29 15:40:04;;;;;;;1.58;0.80;;;18.40;99.90;;;;;;4937928;29;20303;-71
2023/03/29 15:42:31;;;;;;;2.75;1.00;;;18.30;99.90;;;;;;4938145;29;20296;-72
2023/03/29 15:44:58;;;;;;;1.33;0.77;;;18.40;99.90;;;;;;4938130;29;20224;-71
2023/03/29 15:47:25;;;;;;;2.60;0.80;;;18.30;99.90;;;;;;4937956;29;20216;-72
2023/03/29 15:49:53;;;;;;;1.15;0.80;;;18.20;99.90;;;;;;4937943;29;20213;-72
2023/03/29 15:52:19;;;;;;;2.55;1.10;;;18.20;99.90;;;;;;4937860;29;20295;-72
2023/03/29 15:54:46;;;;;;;1.55;0.90;;;18.40;99.90;;;;;;4939004;29;20239;-71
2023/03/29 15:57:15;;;;;;;1.80;0.82;;;18.40;99.90;;;;;;4938115;29;20215;-71
2023/03/29 15:59:43;;;;;;;1.70;0.80;;;18.30;99.90;;;;;;4938031;29;20219;-71
2023/03/29 16:02:14;;;;;;;2.65;0.90;;;18.30;99.90;;;;;;4937572;29;20232;-71
2023/03/29 16:04:41;;;;;;;2.17;0.90;;;18.00;99.90;;;;;;4937365;29;20260;-72
2023/03/29 16:07:14;;;;;;;2.17;1.10;;;18.00;99.90;;;;;;4937151;29;20215;-72
2023/03/29 16:09:42;;;;;;;2.58;0.85;;;18.00;99.90;;;;;;4937552;29;20211;-72
2023/03/29 16:12:09;;;;;;;1.90;0.95;;;18.00;99.90;;;;;;4937509;29;20212;-72
2023/03/29 16:14:37;;;;;;;1.80;0.90;;;18.00;99.90;;;;;;4937948;29;20233;-72
2023/03/29 16:17:04;;;;;;;4.13;1.30;;;17.90;99.90;;;;;;4937949;29;20205;-72
2023/03/29 16:19:32;;;;;;;3.92;0.82;;;17.70;99.90;;;;;;4937817;29;20244;-72
2023/03/29 16:22:00;;;;;;;2.00;0.90;;;17.70;99.90;;;;;;4937465;29;20252;-72
2023/03/29 16:24:31;;;;;;;4.00;1.13;;;17.70;99.90;;;;;;4937678;29;20233;-72
2023/03/29 16:27:00;;;;;;;1.83;1.10;;;17.60;99.90;;;;;;4937439;29;20604;-73
2023/03/29 16:29:27;;;;;;;4.30;1.00;;;17.60;99.90;;;;;;4937369;29;20212;-73
2023/03/29 16:31:55;;;;;;;2.97;1.00;;;17.60;99.90;;;;;;4937000;29;20232;-73
2023/03/29 16:34:22;;;;;;;1.77;1.00;;;17.70;99.90;;;;;;4936833;29;20229;-73
2023/03/29 16:36:49;;;;;;;4.20;1.23;;;17.60;99.90;;;;;;4937361;29;20219;-73
2023/03/29 16:39:17;;;;;;;2.03;1.15;;;17.60;99.90;;;;;;4936861;29;20220;-73
2023/03/29 16:41:47;;;;;;;6.18;1.38;;;17.60;99.90;;;;;;4937426;29;20213;-72
2023/03/29 16:44:16;;;;;;;2.47;1.10;;;17.60;99.90;;;;;;4936992;29;20256;-73
2023/03/29 16:46:43;;;;;;;3.27;1.10;;;17.70;99.90;;;;;;4936848;29;20679;-73
2023/03/29 16:49:16;;;;;;;3.72;1.05;;;17.60;99.90;;;;;;4937250;29;20221;-73
2023/03/29 16:51:45;;;;;;;1.87;1.20;;;17.60;99.90;;;;;;4937107;29;20303;-72
2023/03/29 16:54:12;;;;;;;1.85;1.20;;;17.60;99.90;;;;;;4936723;29;20233;-72
2023/03/29 16:56:39;;;;;;;1.70;0.90;;;17.40;99.90;;;;;;4936847;29;20219;-73
2023/03/29 16:59:08;;;;;;;2.30;1.13;;;17.40;99.90;;;;;;4936602;29;20566;-73
2023/03/29 17:01:35;;;;;;;2.40;0.90;;;17.40;99.90;;;;;;4936524;29;20208;-73
2023/03/29 17:04:01;;;;;;;4.03;1.00;;;17.40;99.90;;;;;;4936393;29;20703;-73
2023/03/29 17:06:30;;;;;;;1.85;0.95;;;17.30;99.90;;;;;;4936586;29;20675;-73
2023/03/29 17:08:59;;;;;;;2.97;0.87;;;17.20;99.90;;;;;;4936571;29;20209;-72
2023/03/29 17:11:26;;;;;;;2.53;0.97;;;17.20;99.90;;;;;;4936619;29;20220;-70
2023/03/29 17:13:54;;;;;;;3.22;1.60;;;17.20;99.90;;;;;;4936302;29;20232;-71
2023/03/29 17:16:22;;;;;;;2.47;1.00;;;17.10;99.90;;;;;;4936405;29;20299;-71
2023/03/29 17:18:49;;;;;;;2.50;0.83;;;17.20;99.90;;;;;;4936359;29;20219;-71
2023/03/29 17:21:16;;;;;;;2.90;1.03;;;17.10;99.90;;;;;;4936815;29;20216;-71
2023/03/29 17:23:42;;;;;;;3.53;1.43;;;17.20;99.90;;;;;;4936024;29;20236;-71
2023/03/29 17:26:10;;;;;;;1.33;0.90;;;17.10;99.90;;;;;;4936197;29;20212;-70
2023/03/29 17:28:37;;;;;;;3.03;0.90;;;17.00;99.90;;;;;;4936014;29;20572;-71
2023/03/29 17:31:06;;;;;;;2.33;1.00;;;16.90;99.90;;;;;;4936398;29;20209;-71
2023/03/29 17:33:35;;;;;;;2.70;1.57;;;16.80;99.90;;;;;;4936108;29;20213;-70
2023/03/29 17:36:02;;;;;;;3.13;1.00;;;16.70;99.90;;;;;;4935786;29;20219;-71
2023/03/29 17:38:32;;;;;;;1.97;0.90;;;16.60;99.90;;;;;;4935987;29;20217;-71
2023/03/29 17:41:00;;;;;;;4.47;1.07;;;16.60;99.90;;;;;;4936051;29;20217;-71
2023/03/29 17:43:26;;;;;;;3.40;0.70;;;16.50;99.90;;;;;;4935929;29;20240;-71
2023/03/29 17:45:54;;;;;;;4.27;0.90;;;16.50;99.90;;;;;;4935975;29;20243;-71
2023/03/29 17:48:22;;;;;;;2.27;0.90;;;16.50;99.90;;;;;;4936105;29;20212;-71
2023/03/29 17:50:51;;;;;;;3.67;1.33;;;16.50;99.90;;;;;;4935797;29;20673;-71
2023/03/29 17:53:18;;;;;;;4.13;1.00;;;16.50;99.90;;;;;;4935687;29;20213;-71
2023/03/29 17:55:44;;;;;;;2.40;1.10;;;16.50;99.90;;;;;;4935252;29;20260;-71
2023/03/29 17:58:11;;;;;;;1.60;0.93;;;16.50;99.90;;;;;;4935437;29;20209;-71
2023/03/29 18:00:38;;;;;;;4.50;0.90;;;16.40;99.90;;;;;;4935792;29;20211;-71
2023/03/29 18:03:05;;;;;;;19.97;8.00;;;16.30;99.90;;;;;;4935283;29;20237;-71
2023/03/29 18:05:33;;;;;;;5.03;1.80;;;16.40;99.90;;;;;;4935356;29;20260;-71
2023/03/29 18:08:01;;;;;;;2.70;1.07;;;16.40;99.90;;;;;;4935384;29;20219;-71
2023/03/29 18:10:29;;;;;;;3.67;0.93;;;16.30;99.90;;;;;;4935213;29;20217;-71
2023/03/29 18:12:55;;;;;;;2.37;1.03;;;16.20;99.90;;;;;;4935705;29;20219;-71
2023/03/29 18:15:22;;;;;;;4.33;1.10;;;16.20;99.90;;;;;;4936992;29;20233;-70
2023/03/29 18:17:49;;;;;;;2.27;1.00;;;16.20;99.90;;;;;;4935724;29;20580;-70
2023/03/29 18:20:16;;;;;;;3.20;1.10;;;16.20;99.90;;;;;;4935652;29;20217;-70
2023/03/29 18:22:44;;;;;;;1.07;0.87;;;16.10;99.90;;;;;;4935077;29;20243;-70
2023/03/29 18:25:13;;;;;;;2.07;1.00;;;16.10;99.90;;;;;;4935296;29;20228;-70
2023/03/29 18:27:40;;;;;;;6.20;1.30;;;16.10;99.90;;;;;;4935801;29;20213;-70
2023/03/29 18:30:08;;;;;;;4.77;0.83;;;16.00;99.90;;;;;;4935506;29;20664;-70
2023/03/29 18:32:35;;;;;;;1.70;0.90;;;16.10;99.90;;;;;;4938933;29;20212;-70
2023/03/29 18:35:02;;;;;;;4.33;1.00;;;16.00;99.90;;;;;;4938328;29;20723;-70
2023/03/29 18:37:29;;;;;;;2.97;1.10;;;16.00;99.90;;;;;;4938590;29;20652;-70
2023/03/29 18:39:56;;;;;;;2.90;0.90;;;15.90;99.90;;;;;;4934561;29;20213;-69
2023/03/29 18:42:24;;;;;;;2.37;1.03;;;15.90;99.90;;;;;;4933001;29;20215;-69
2023/03/29 18:44:51;;;;;;;2.70;1.20;;;15.90;99.90;;;;;;4937289;29;20248;-68
2023/03/29 18:47:18;;;;;;;2.37;1.20;;;15.90;99.90;;;;;;4936983;29;20205;-70
2023/03/29 18:49:45;;;;;;;3.17;1.20;;;15.90;99.90;;;;;;4937352;29;20588;-70
2023/03/29 18:52:11;;;;;;;3.73;1.27;;;15.90;99.90;;;;;;4936816;29;20562;-69
2023/03/29 18:54:38;;;;;;;3.70;1.20;;;15.90;99.90;;;;;;4936768;29;20719;-69
2023/03/29 18:57:05;;;;;;;3.27;1.63;;;15.90;99.90;;;;;;4931396;29;20549;-68
2023/03/29 18:59:34;;;;;;;3.33;1.10;;;15.90;99.90;;;;;;4930170;29;20635;-69
2023/03/29 19:02:01;;;;;;;4.20;1.20;;;15.90;99.90;;;;;;4927561;29;20245;-68
2023/03/29 19:04:28;;;;;;;3.60;1.40;;;15.90;99.90;;;;;;4929684;29;20251;-69
2023/03/29 19:06:55;;;;;;;3.60;1.30;;;15.80;99.90;;;;;;4925213;29;20216;-68
2023/03/29 19:09:22;;;;;;;2.80;1.30;;;15.70;99.90;;;;;;4932741;29;20209;-68
2023/03/29 19:11:49;;;;;;;2.97;1.30;;;15.70;99.90;;;;;;4929588;29;20210;-69
2023/03/29 19:14:22;;;;;;;2.83;1.40;;;15.60;99.90;;;;;;4931220;29;20236;-69
2023/03/29 19:16:50;;;;;;;2.73;1.20;;;15.70;99.90;;;;;;4929125;29;20213;-69
2023/03/29 19:19:18;;;;;;;3.30;1.33;;;15.60;99.90;;;;;;4931721;29;20269;-69
2023/03/29 19:21:46;;;;;;;3.80;1.20;;;15.70;99.90;;;;;;4928820;29;21299;-69
2023/03/29 19:24:12;;;;;;;4.17;1.30;;;15.60;99.90;;;;;;4931698;29;20236;-69
2023/03/29 19:26:39;;;;;;;6.73;1.60;;;15.60;99.90;;;;;;4937458;29;20209;-70
2023/03/29 19:29:07;;;;;;;3.00;1.30;;;15.60;99.90;;;;;;4926945;29;20241;-70
2023/03/29 19:31:36;;;;;;;4.83;1.30;;;15.50;99.90;;;;;;4935668;29;20259;-69
2023/03/29 19:34:05;;;;;;;3.47;1.33;;;15.50;99.90;;;;;;4924840;29;20715;-70
2023/03/29 19:36:32;;;;;;;3.33;1.50;;;15.50;99.90;;;;;;4936240;29;20572;-70
2023/03/29 19:38:59;;;;;;;3.67;1.40;;;15.50;99.90;;;;;;4933792;29;20216;-69
2023/03/29 19:41:26;;;;;;;4.00;1.50;;;15.50;99.90;;;;;;4936522;29;20216;-69
2023/03/29 19:43:53;;;;;;;4.00;1.57;;;15.50;99.90;;;;;;4930430;29;20248;-69
2023/03/29 19:46:20;;;;;;;3.10;1.67;;;15.40;99.90;;;;;;4935473;29;20660;-70
2023/03/29 19:48:47;;;;;;;3.27;1.63;;;15.40;99.90;;;;;;4920240;29;20210;-70
2023/03/29 19:51:15;;;;;;;4.47;1.97;;;15.40;99.90;;;;;;4935994;29;20211;-70
2023/03/29 19:53:42;;;;;;;5.73;1.50;;;15.40;99.90;;;;;;4927249;29;20218;-71
2023/03/29 19:56:12;;;;;;;2.27;1.20;;;15.40;99.90;;;;;;4934402;29;20209;-70
2023/03/29 19:58:38;;;;;;;3.50;1.50;;;15.40;99.90;;;;;;4927261;29;20300;-70
2023/03/29 20:01:05;;;;;;;6.90;1.60;;;15.40;99.90;;;;;;4932340;29;20209;-70
2023/03/29 20:03:32;;;;;;;5.17;1.60;;;15.40;99.90;;;;;;4934307;29;20600;-70
2023/03/29 20:06:00;;;;;;;4.00;1.50;;;15.30;99.90;;;;;;4934202;29;20216;-71
2023/03/29 20:08:28;;;;;;;2.90;1.80;;;15.30;99.90;;;;;;4920112;29;20297;-70
2023/03/29 20:10:58;;;;;;;3.73;1.50;;;15.30;99.90;;;;;;4934913;29;20209;-71
2023/03/29 20:13:25;;;;;;;3.63;1.50;;;15.30;99.90;;;;;;4936722;29;20209;-71
2023/03/29 20:15:54;;;;;;;5.47;1.50;;;15.30;99.90;;;;;;4933415;29;20707;-70
2023/03/29 20:18:21;;;;;;;3.77;1.30;;;15.30;99.90;;;;;;4935107;29;20213;-71
2023/03/29 20:20:48;;;;;;;2.40;1.30;;;15.30;99.90;;;;;;4925073;29;20202;-71
2023/03/29 20:23:15;;;;;;;4.43;1.30;;;15.40;99.90;;;;;;4933071;29;20344;-71
2023/03/29 20:25:44;;;;;;;2.10;1.10;;;15.30;99.90;;;;;;4930076;29;20235;-71
2023/03/29 20:28:12;;;;;;;3.67;1.33;;;15.20;99.90;;;;;;4933344;29;20246;-71
2023/03/29 20:30:40;;;;;;;2.27;1.17;;;15.20;99.90;;;;;;4930520;29;20610;-71
2023/03/29 20:33:07;;;;;;;2.83;1.17;;;15.20;99.90;;;;;;4931470;29;20223;-71
2023/03/29 20:35:34;;;;;;;2.30;1.20;;;15.20;99.90;;;;;;4927021;29;20296;-71
2023/03/29 20:38:01;;;;;;;2.60;1.17;;;15.10;99.90;;;;;;4929826;29;20210;-71
2023/03/29 20:40:28;;;;;;;3.20;1.30;;;15.10;99.90;;;;;;4923954;29;20210;-71